Terminal Aerodrome Forecast
Issued by NWS

Home | Current Version | Previous Version | Text Only | Print | Product List | Glossary On
Versions: 1 2 3 4 5 6 7 8 9 10 11 12 13 14 15 16 17 18 19 20 21 22 23
036
FTUS43 KIND 240520
TAFHUF
TAF
KHUF 240520Z 2406/2506 34004KT P6SM OVC023
     FM241700 24004KT P6SM BKN015
     FM241800 22004KT P6SM BKN020
     FM241900 21005KT P6SM BKN050
     FM242300 15008KT P6SM BKN120=

USA.gov is the U.S. government's official web portal to all federal, state and local government web resources and services.